Time;durP1;ratioP1;P1;durP2;ratioP2;P2;SDS_P1;SDS_P2;PMS_P1;PMS_P2;Temp;Humidity;BMP_temperature;BMP_pressure;BME280_temperature;BME280_humidity;BME280_pressure;Samples;Min_cycle;Max_cycle;Signal;HPM_P1;HPM_P2
2023/03/13 00:01:38;;;;;;;17.00;9.40;;;;;;;5.32;66.57;99616.36;131683;1253;114703;-78
2023/03/13 00:04:41;;;;;;;17.50;9.50;;;;;;;5.35;66.72;99618.02;131691;1253;115221;-74
2023/03/13 00:07:44;;;;;;;16.40;9.40;;;;;;;5.38;66.74;99625.69;131643;1259;113803;-78
2023/03/13 00:10:46;;;;;;;13.30;8.20;;;;;;;5.41;66.79;99621.47;131563;1260;114781;-75
2023/03/13 00:13:56;;;;;;;19.10;9.10;;;;;;;5.45;67.06;99623.99;131691;1259;113576;-76
2023/03/13 00:16:59;;;;;;;17.50;8.80;;;;;;;5.48;67.25;99622.28;131343;1254;127705;-76
2023/03/13 00:20:03;;;;;;;13.40;7.50;;;;;;;5.51;67.22;99620.77;131622;1254;114715;-76
2023/03/13 00:23:06;;;;;;;8.20;5.60;;;;;;;5.52;67.20;99621.76;131786;1257;114556;-77
2023/03/13 00:26:11;;;;;;;7.50;5.10;;;;;;;5.55;67.26;99623.08;131726;1259;114715;-76
2023/03/13 00:29:14;;;;;;;;;;;;;;;5.59;67.52;99623.63;131657;1260;113294;-78
2023/03/13 00:32:17;;;;;;;6.30;4.30;;;;;;;5.62;67.52;99620.85;131642;1253;114644;-76
2023/03/13 00:35:19;;;;;;;7.00;4.30;;;;;;;5.65;67.64;99619.83;131665;1260;114667;-75
2023/03/13 00:38:22;;;;;;;4.20;3.10;;;;;;;5.69;67.75;99616.84;131733;1258;114802;-77
2023/03/13 00:41:30;;;;;;;4.10;3.10;;;;;;;5.73;67.66;99618.10;131547;1260;113298;-79
2023/03/13 00:44:33;;;;;;;5.30;3.00;;;;;;;5.76;67.75;99617.27;131696;1259;114773;-80
2023/03/13 00:47:36;;;;;;;4.30;3.30;;;;;;;5.81;67.74;99621.33;131695;1260;114065;-80
2023/03/13 00:50:39;;;;;;;5.00;3.00;;;;;;;5.84;67.70;99622.95;131646;1253;114718;-80
2023/03/13 00:53:43;;;;;;;3.10;2.70;;;;;;;5.89;67.74;99621.02;131620;1254;113576;-79
2023/03/13 00:56:46;;;;;;;3.70;3.10;;;;;;;5.93;67.84;99620.83;131666;1259;113309;-79
2023/03/13 00:59:49;;;;;;;3.60;3.20;;;;;;;5.96;67.86;99621.05;131699;1257;114719;-80
2023/03/13 01:02:51;;;;;;;6.50;3.50;;;;;;;6.00;67.98;99619.68;131529;1260;114778;-76
2023/03/13 01:05:58;;;;;;;4.00;3.50;;;;;;;6.02;67.96;99614.98;131666;1258;114719;-76
2023/03/13 01:09:03;;;;;;;4.50;3.60;;;;;;;6.05;67.98;99614.34;131675;1257;114795;-79
2023/03/13 01:12:07;;;;;;;7.10;3.70;;;;;;;6.06;67.98;99612.85;131682;1259;114741;-77
2023/03/13 01:15:10;;;;;;;5.20;3.80;;;;;;;6.09;68.14;99614.35;131710;1259;114670;-77
2023/03/13 01:18:14;;;;;;;5.30;3.70;;;;;;;6.11;68.05;99615.70;131652;1260;114713;-76
2023/03/13 01:21:19;;;;;;;7.80;3.30;;;;;;;6.13;68.02;99609.23;131613;1257;129334;-76
2023/03/13 01:24:23;;;;;;;4.40;3.50;;;;;;;6.15;68.05;99612.86;131503;1254;251025;-79
2023/03/13 01:27:28;;;;;;;4.60;3.40;;;;;;;6.17;68.17;99612.93;131728;1256;113312;-77
2023/03/13 01:30:31;;;;;;;7.40;4.70;;;;;;;6.20;68.11;99610.14;131702;1260;114658;-80
2023/03/13 01:33:34;;;;;;;7.70;4.60;;;;;;;6.23;68.26;99612.87;131668;1254;114779;-75
2023/03/13 01:36:38;;;;;;;4.70;3.70;;;;;;;6.24;68.38;99608.93;131640;1257;128889;-77
2023/03/13 01:39:40;;;;;;;4.70;3.20;;;;;;;6.25;68.52;99606.39;131675;1260;113438;-78
2023/03/13 01:42:59;;;;;;;5.40;3.90;;;;;;;6.26;68.41;99603.56;131596;1260;114677;-77
2023/03/13 01:46:21;;;;;;;6.10;4.10;;;;;;;6.26;68.62;99604.43;131697;1254;114690;-80
2023/03/13 01:49:32;;;;;;;4.70;3.70;;;;;;;6.25;68.69;99606.04;131680;1256;114697;-73
2023/03/13 01:52:34;;;;;;;8.00;4.20;;;;;;;6.26;68.72;99604.42;131690;1254;126681;-78
2023/03/13 01:55:37;;;;;;;5.00;3.70;;;;;;;6.26;68.74;99607.26;131645;1254;114750;-75
2023/03/13 01:58:41;;;;;;;4.90;3.90;;;;;;;6.26;68.85;99616.11;131595;1258;115265;-75
2023/03/13 02:01:46;;;;;;;5.10;3.80;;;;;;;6.27;68.72;99618.21;131586;1255;113213;-77
2023/03/13 02:04:54;;;;;;;9.20;4.70;;;;;;;6.28;68.97;99614.29;131686;1254;114687;-74
2023/03/13 02:08:08;;;;;;;6.80;4.80;;;;;;;6.29;69.12;99620.06;131687;1254;128844;-79
2023/03/13 02:11:52;;;;;;;10.10;5.70;;;;;;;6.31;69.20;99620.70;131706;1254;114718;-82
2023/03/13 02:14:57;;;;;;;10.30;6.10;;;;;;;6.33;69.33;99624.70;131165;1261;113736;-74
2023/03/13 02:18:00;;;;;;;7.80;5.20;;;;;;;6.35;69.53;99629.58;131194;1264;114887;-81
2023/03/13 02:21:19;;;;;;;8.90;6.10;;;;;;;6.36;69.74;99632.34;131158;1264;114687;-74
2023/03/13 02:24:38;;;;;;;8.60;6.30;;;;;;;6.38;70.04;99633.88;131146;1260;128138;-76
2023/03/13 02:27:41;;;;;;;11.00;6.00;;;;;;;6.38;70.29;99637.75;130982;1260;115343;-74
2023/03/13 02:30:47;;;;;;;10.30;5.40;;;;;;;6.39;70.53;99636.10;131163;1263;114614;-75
2023/03/13 02:33:50;;;;;;;11.10;6.20;;;;;;;6.39;70.89;99635.39;131079;1264;114655;-73
2023/03/13 02:36:54;;;;;;;10.00;6.30;;;;;;;6.41;71.01;99630.39;131059;1261;114497;-73
2023/03/13 02:40:00;;;;;;;11.30;6.80;;;;;;;6.42;71.25;99624.85;131106;1261;126817;-73
2023/03/13 02:43:14;;;;;;;7.30;5.40;;;;;;;6.42;71.60;99616.31;131242;1261;114349;-73
2023/03/13 02:46:19;;;;;;;7.90;6.00;;;;;;;6.42;71.63;99614.02;131099;1264;114645;-74
2023/03/13 02:49:28;;;;;;;8.60;6.60;;;;;;;6.42;71.76;99620.94;131100;1260;113552;-75
2023/03/13 02:52:37;;;;;;;14.60;6.20;;;;;;;6.43;72.06;99621.45;131552;1254;114038;-75
2023/03/13 02:55:41;;;;;;;13.40;7.00;;;;;;;6.43;71.92;99624.45;131653;1254;128702;-74
2023/03/13 02:58:44;;;;;;;11.70;7.20;;;;;;;6.43;71.87;99627.09;131719;1254;115361;-73
2023/03/13 03:01:51;;;;;;;11.60;7.80;;;;;;;6.44;71.93;99624.40;131686;1254;114692;-74
2023/03/13 03:04:54;;;;;;;12.90;8.80;;;;;;;6.44;72.05;99620.67;131686;1255;113185;-77
2023/03/13 03:07:58;;;;;;;9.20;7.70;;;;;;;6.45;71.95;99612.66;131669;1254;114522;-76
2023/03/13 03:11:02;;;;;;;12.30;8.90;;;;;;;6.44;72.19;99610.40;131698;1257;114731;-78
2023/03/13 03:14:05;;;;;;;11.10;8.20;;;;;;;6.44;72.22;99611.08;131560;1254;115295;-75
2023/03/13 03:17:08;;;;;;;10.40;8.60;;;;;;;6.44;72.39;99611.63;131676;1255;114757;-77
2023/03/13 03:20:11;;;;;;;12.80;8.40;;;;;;;6.45;72.35;99610.36;131568;1254;115346;-80
2023/03/13 03:23:13;;;;;;;11.30;8.80;;;;;;;6.46;72.38;99607.44;131547;1254;114530;-77
2023/03/13 03:26:17;;;;;;;13.00;8.90;;;;;;;6.46;72.56;99603.36;131561;1254;115477;-76
2023/03/13 03:29:19;;;;;;;11.60;8.20;;;;;;;6.48;72.65;99607.00;131718;1254;114731;-75
2023/03/13 03:32:22;;;;;;;12.70;8.60;;;;;;;6.50;72.76;99607.13;132337;1254;114543;-75
2023/03/13 03:35:25;;;;;;;11.90;8.50;;;;;;;6.49;72.54;99606.08;131757;1254;115476;-77
2023/03/13 03:38:27;;;;;;;12.60;8.60;;;;;;;6.49;72.60;99599.85;131670;1254;114763;-80
2023/03/13 03:41:30;;;;;;;11.80;8.10;;;;;;;6.50;72.66;99600.17;131717;1254;114705;-80
2023/03/13 03:44:33;;;;;;;16.30;9.50;;;;;;;6.50;72.72;99601.95;131547;1260;114712;-79
2023/03/13 03:47:35;;;;;;;16.70;10.30;;;;;;;6.50;72.89;99603.94;131663;1254;114751;-77
2023/03/13 03:50:38;;;;;;;15.60;10.50;;;;;;;6.50;72.85;99603.56;131720;1254;114818;-77
2023/03/13 03:53:42;;;;;;;13.10;9.10;;;;;;;6.50;72.66;99604.08;131782;1254;113279;-74
2023/03/13 03:56:44;;;;;;;17.00;10.10;;;;;;;6.50;72.85;99603.55;131738;1257;114486;-77
2023/03/13 03:59:47;;;;;;;14.10;10.00;;;;;;;6.51;72.77;99599.09;131619;1254;114770;-77
2023/03/13 04:02:49;;;;;;;15.00;10.60;;;;;;;6.51;72.86;99599.77;131641;1257;113331;-76
2023/03/13 04:05:53;;;;;;;16.50;10.10;;;;;;;6.52;72.88;99590.52;131570;1254;114732;-77
2023/03/13 04:08:56;;;;;;;13.80;10.10;;;;;;;6.53;72.80;99592.96;131706;1257;113588;-78
2023/03/13 04:11:59;;;;;;;14.20;10.10;;;;;;;6.53;72.82;99591.56;131653;1257;115305;-79
2023/03/13 04:15:03;;;;;;;13.90;10.40;;;;;;;6.52;73.00;99583.79;131573;1257;113407;-78
2023/03/13 04:18:06;;;;;;;15.30;10.60;;;;;;;6.52;72.96;99582.38;131640;1253;114705;-78
2023/03/13 04:21:09;;;;;;;14.40;11.20;;;;;;;6.52;73.21;99575.06;131699;1254;114799;-75
2023/03/13 04:24:12;;;;;;;22.20;11.60;;;;;;;6.52;73.06;99564.77;131570;1255;114686;-73
2023/03/13 04:27:15;;;;;;;18.40;12.00;;;;;;;6.51;73.22;99561.09;131598;1254;114716;-76
2023/03/13 04:30:18;;;;;;;20.20;13.20;;;;;;;6.51;73.22;99562.34;131652;1254;114680;-75
2023/03/13 04:33:21;;;;;;;16.60;11.90;;;;;;;6.49;73.18;99556.23;131742;1254;114093;-74
2023/03/13 04:36:24;;;;;;;18.70;13.70;;;;;;;6.48;73.38;99548.10;131755;1254;114828;-74
2023/03/13 04:39:27;;;;;;;19.00;13.10;;;;;;;6.49;73.37;99542.05;131724;1254;114562;-75
2023/03/13 04:42:31;;;;;;;22.60;14.70;;;;;;;6.47;73.43;99536.09;131761;1255;114704;-73
2023/03/13 04:45:34;;;;;;;19.40;13.60;;;;;;;6.46;73.55;99534.38;131779;1254;114709;-73
2023/03/13 04:48:38;;;;;;;22.50;14.20;;;;;;;6.43;73.49;99530.95;131597;1257;114028;-73
2023/03/13 04:51:45;;;;;;;21.60;13.70;;;;;;;6.41;73.41;99531.73;131548;1254;129856;-74
2023/03/13 04:54:49;;;;;;;22.30;14.90;;;;;;;6.39;73.40;99531.81;131729;1254;115231;-74
2023/03/13 04:57:53;;;;;;;24.80;14.70;;;;;;;6.36;73.54;99531.08;131784;1255;113464;-74
2023/03/13 05:00:58;;;;;;;20.70;14.80;;;;;;;6.33;73.72;99523.77;131776;1253;113458;-73
2023/03/13 05:04:02;;;;;;;26.80;15.10;;;;;;;6.33;73.90;99521.45;132716;1253;113882;-74
2023/03/13 05:07:05;;;;;;;25.90;14.50;;;;;;;6.34;73.99;99522.33;131688;1254;128134;-74
2023/03/13 05:10:09;;;;;;;22.60;14.10;;;;;;;6.35;74.20;99520.14;131688;1254;115326;-74
2023/03/13 05:13:13;;;;;;;20.20;13.30;;;;;;;6.37;74.22;99517.73;131708;1254;114502;-74
2023/03/13 05:16:19;;;;;;;22.90;13.50;;;;;;;6.39;74.35;99514.11;132670;1259;114734;-75
2023/03/13 05:19:22;;;;;;;19.40;13.80;;;;;;;6.41;74.46;99512.77;131678;1254;114694;-75
2023/03/13 05:22:27;;;;;;;20.50;13.70;;;;;;;6.44;74.65;99512.11;131713;1257;128745;-75
2023/03/13 05:25:30;;;;;;;19.70;13.80;;;;;;;6.47;74.50;99506.30;132582;1254;114849;-75
2023/03/13 05:28:41;;;;;;;22.00;13.00;;;;;;;6.50;74.76;99504.19;131598;1255;113887;-76
2023/03/13 05:31:45;;;;;;;25.80;14.50;;;;;;;6.54;74.71;99500.13;131570;1255;113659;-75
2023/03/13 05:34:49;;;;;;;24.20;13.20;;;;;;;6.58;74.87;99499.95;132405;1256;114663;-75
2023/03/13 05:37:52;;;;;;;25.80;14.80;;;;;;;6.64;74.91;99500.58;131541;1257;127731;-75
2023/03/13 05:40:55;;;;;;;27.50;15.70;;;;;;;6.70;74.97;99499.23;132523;1256;114045;-74
2023/03/13 05:43:57;;;;;;;25.00;13.90;;;;;;;6.75;74.86;99498.29;132532;1256;114692;-74
2023/03/13 05:47:00;;;;;;;21.60;13.50;;;;;;;6.80;74.79;99493.97;131559;1256;114677;-76
2023/03/13 05:50:05;;;;;;;25.80;15.50;;;;;;;6.85;75.00;99495.67;131508;1257;114565;-75
2023/03/13 05:53:08;;;;;;;31.50;17.60;;;;;;;6.90;74.97;99489.05;132503;1256;115206;-75
2023/03/13 05:56:11;;;;;;;27.50;16.40;;;;;;;6.95;74.72;99495.94;132530;1255;114692;-76
2023/03/13 05:59:13;;;;;;;18.20;13.00;;;;;;;6.99;74.71;99486.50;131536;1256;115862;-75
2023/03/13 06:02:16;;;;;;;22.20;13.50;;;;;;;7.03;74.78;99489.34;132496;1255;114684;-76
2023/03/13 06:05:19;;;;;;;26.20;13.20;;;;;;;7.07;74.80;99487.02;132616;1255;114655;-74
2023/03/13 06:08:21;;;;;;;27.60;14.50;;;;;;;7.10;74.65;99485.27;131437;1256;114805;-74
2023/03/13 06:11:24;;;;;;;30.30;13.90;;;;;;;7.13;74.83;99481.19;132508;1259;115941;-75
2023/03/13 06:14:27;;;;;;;19.10;12.80;;;;;;;7.19;74.64;99480.21;131421;1257;114663;-74
2023/03/13 06:17:30;;;;;;;22.40;13.10;;;;;;;7.25;74.97;99477.98;131545;1256;114764;-73
2023/03/13 06:20:33;;;;;;;22.60;14.40;;;;;;;7.30;74.83;99470.09;131560;1255;114704;-74
2023/03/13 06:23:37;;;;;;;30.70;14.40;;;;;;;7.36;74.67;99470.52;131522;1256;114564;-74
2023/03/13 06:26:39;;;;;;;26.50;14.90;;;;;;;7.43;74.78;99469.25;131491;1256;114646;-75
2023/03/13 06:29:42;;;;;;;27.90;15.40;;;;;;;7.50;74.88;99468.39;131499;1256;114706;-74
2023/03/13 06:32:45;;;;;;;24.60;14.60;;;;;;;7.58;74.73;99464.25;132491;1256;114760;-75
2023/03/13 06:35:49;;;;;;;25.30;14.60;;;;;;;7.66;74.56;99456.04;131412;1257;114783;-76
2023/03/13 06:38:51;;;;;;;20.70;13.30;;;;;;;7.75;74.72;99456.29;131514;1256;114718;-76
2023/03/13 06:41:54;;;;;;;25.80;12.40;;;;;;;7.85;74.64;99456.33;131618;1255;114703;-76
2023/03/13 06:44:58;;;;;;;22.50;12.90;;;;;;;7.94;74.65;99448.36;131553;1256;128221;-76
2023/03/13 06:48:01;;;;;;;29.20;14.70;;;;;;;8.06;74.63;99446.33;131399;1256;114738;-75
2023/03/13 06:51:10;;;;;;;23.30;15.00;;;;;;;8.17;74.56;99441.27;131555;1256;114779;-77
2023/03/13 06:54:13;;;;;;;18.90;13.40;;;;;;;8.32;74.58;99444.61;131535;1256;113503;-75
2023/03/13 06:57:17;;;;;;;18.70;13.00;;;;;;;8.45;74.38;99439.80;131498;1257;113162;-74
2023/03/13 07:00:22;;;;;;;23.60;12.90;;;;;;;8.58;74.05;99436.09;131508;1255;128111;-75
2023/03/13 07:03:24;;;;;;;26.30;12.00;;;;;;;8.72;74.11;99435.71;131526;1256;114710;-74
2023/03/13 07:06:27;;;;;;;25.60;12.90;;;;;;;8.85;74.12;99438.17;131595;1260;114691;-75
2023/03/13 07:09:30;;;;;;;27.70;14.00;;;;;;;9.00;73.85;99434.11;131546;1260;114716;-75
2023/03/13 07:12:34;;;;;;;21.60;11.80;;;;;;;9.15;73.72;99426.84;131506;1256;113430;-74
2023/03/13 07:15:39;;;;;;;19.80;10.70;;;;;;;9.35;73.75;99421.56;132514;1255;114793;-75
2023/03/13 07:18:43;;;;;;;16.40;10.30;;;;;;;9.56;73.40;99409.88;131354;1256;114777;-75
2023/03/13 07:21:46;;;;;;;15.90;8.80;;;;;;;9.78;73.47;99406.40;131592;1258;114748;-77
2023/03/13 07:24:49;;;;;;;16.10;9.10;;;;;;;10.02;73.03;99402.41;131562;1256;114655;-76
2023/03/13 07:27:53;;;;;;;13.20;8.60;;;;;;;10.26;73.05;99396.29;131485;1257;114694;-76
2023/03/13 07:31:04;;;;;;;15.20;7.80;;;;;;;10.52;72.46;99394.72;132512;1255;114706;-73
2023/03/13 07:34:07;;;;;;;20.70;8.70;;;;;;;10.75;72.02;99393.44;131441;1256;115343;-75
2023/03/13 07:37:11;;;;;;;21.20;8.20;;;;;;;10.89;71.30;99381.30;131560;1256;113395;-75
2023/03/13 07:40:15;;;;;;;15.80;8.10;;;;;;;11.09;71.83;99374.61;131387;1256;114495;-75
2023/03/13 07:43:19;;;;;;;18.70;7.00;;;;;;;11.31;71.24;99374.54;132471;1256;114655;-74
2023/03/13 07:46:22;;;;;;;18.30;7.50;;;;;;;11.58;71.00;99366.48;131406;1256;128655;-73
2023/03/13 07:49:26;;;;;;;15.70;6.50;;;;;;;11.93;70.98;99355.86;131498;1255;114674;-74
2023/03/13 07:52:29;;;;;;;14.40;7.40;;;;;;;12.20;70.06;99350.56;131529;1255;113630;-74
2023/03/13 07:55:31;;;;;;;13.00;7.50;;;;;;;12.38;69.77;99351.06;131522;1256;114764;-74
2023/03/13 07:58:36;;;;;;;16.70;6.40;;;;;;;12.48;69.11;99361.46;131432;1256;113224;-74
2023/03/13 08:01:39;;;;;;;11.70;6.00;;;;;;;12.54;69.02;99360.86;131410;1256;127755;-75
2023/03/13 08:04:43;;;;;;;16.50;6.30;;;;;;;12.59;68.51;99362.09;131507;1256;115897;-74
2023/03/13 08:07:45;;;;;;;18.40;6.70;;;;;;;12.59;68.18;99362.06;132398;1256;115113;-75
2023/03/13 08:10:49;;;;;;;15.70;6.40;;;;;;;12.58;67.78;99364.09;131551;1260;114649;-75
2023/03/13 08:13:53;;;;;;;15.60;6.30;;;;;;;12.56;67.70;99357.64;131539;1255;114571;-74
2023/03/13 08:16:56;;;;;;;18.30;8.20;;;;;;;12.60;67.63;99351.96;131505;1256;128955;-74
2023/03/13 08:19:58;;;;;;;17.00;7.50;;;;;;;12.63;66.97;99345.90;131411;1260;113216;-74
2023/03/13 08:23:01;;;;;;;21.50;6.90;;;;;;;12.59;66.97;99340.23;131460;1256;114076;-75
2023/03/13 08:26:10;;;;;;;21.70;6.60;;;;;;;12.62;66.94;99334.29;132533;1256;115326;-73
2023/03/13 08:29:15;;;;;;;21.70;6.10;;;;;;;12.73;66.79;99326.29;131590;1254;113583;-74
2023/03/13 08:32:18;;;;;;;19.90;6.10;;;;;;;12.80;66.63;99321.12;131537;1254;126882;-73
2023/03/13 08:35:21;;;;;;;18.90;6.60;;;;;;;12.88;66.29;99314.84;131655;1254;113601;-74
2023/03/13 08:38:24;;;;;;;12.30;5.40;;;;;;;12.94;66.30;99317.03;131689;1254;114048;-74
2023/03/13 08:41:29;;;;;;;19.20;6.20;;;;;;;13.04;66.30;99320.95;131684;1254;114732;-74
2023/03/13 08:44:32;;;;;;;18.60;5.30;;;;;;;13.15;65.68;99317.45;131599;1254;114708;-74
2023/03/13 08:47:35;;;;;;;18.50;5.80;;;;;;;13.20;65.45;99320.30;131578;1254;114167;-74
2023/03/13 08:50:38;;;;;;;20.70;6.10;;;;;;;13.22;65.34;99315.30;131486;1255;115183;-73
2023/03/13 08:53:42;;;;;;;14.80;5.50;;;;;;;13.25;65.05;99309.51;131652;1256;115323;-75
2023/03/13 08:56:46;;;;;;;22.20;8.10;;;;;;;13.23;64.70;99304.99;131645;1259;114665;-74
2023/03/13 08:59:50;;;;;;;10.80;4.40;;;;;;;13.16;64.56;99295.83;131601;1254;114773;-74
2023/03/13 09:02:53;;;;;;;12.70;5.40;;;;;;;13.08;64.24;99287.84;131507;1255;127585;-74
2023/03/13 09:05:57;;;;;;;19.50;5.80;;;;;;;13.10;64.85;99297.77;131445;1254;113484;-75
2023/03/13 09:09:01;;;;;;;12.00;4.40;;;;;;;13.22;64.79;99300.27;132595;1256;113637;-74
2023/03/13 09:12:04;;;;;;;12.90;4.40;;;;;;;13.30;64.25;99283.86;132613;1254;114483;-74
2023/03/13 09:15:09;;;;;;;12.10;4.20;;;;;;;13.37;64.06;99278.84;131682;1254;114802;-74
2023/03/13 09:18:11;;;;;;;17.00;4.90;;;;;;;13.42;64.09;99268.12;131631;1254;129069;-75
2023/03/13 09:21:20;;;;;;;15.40;4.00;;;;;;;13.50;63.77;99263.48;132635;1254;114147;-74
2023/03/13 09:24:23;;;;;;;15.20;4.70;;;;;;;13.59;63.61;99258.67;132647;1254;114665;-75
2023/03/13 09:27:27;;;;;;;13.70;4.60;;;;;;;13.63;63.18;99247.23;132519;1253;114679;-76
2023/03/13 09:30:30;;;;;;;12.50;4.50;;;;;;;13.66;63.21;99245.90;131471;1256;114700;-74
2023/03/13 09:33:33;;;;;;;13.90;4.60;;;;;;;13.71;63.13;99234.21;131612;1253;114745;-74
2023/03/13 09:36:36;;;;;;;12.60;3.80;;;;;;;13.77;62.92;99229.30;131650;1253;113242;-74
2023/03/13 09:39:39;;;;;;;13.50;5.50;;;;;;;13.80;62.82;99226.35;132744;1253;114649;-74
2023/03/13 09:42:48;;;;;;;20.30;5.30;;;;;;;13.85;62.47;99221.12;132725;1253;115595;-74
2023/03/13 09:45:54;;;;;;;17.50;5.00;;;;;;;13.83;62.14;99211.85;131725;1253;114441;-74
2023/03/13 09:49:03;;;;;;;13.80;4.90;;;;;;;13.86;62.19;99205.02;131703;1254;127850;-74
2023/03/13 09:52:25;;;;;;;13.90;5.10;;;;;;;13.85;61.73;99190.05;131703;1256;115186;-73
2023/03/13 09:55:33;;;;;;;16.10;4.90;;;;;;;13.86;61.96;99181.52;131553;1254;113592;-73
2023/03/13 09:58:37;;;;;;;10.90;3.50;;;;;;;13.82;61.49;99171.73;131750;1253;114653;-74
2023/03/13 10:01:40;;;;;;;19.40;4.30;;;;;;;13.76;61.30;99166.38;131643;1253;113878;-74
2023/03/13 10:04:51;;;;;;;13.10;4.30;;;;;;;13.73;61.30;99158.93;131576;1253;115375;-74
2023/03/13 10:08:17;;;;;;;12.50;3.60;;;;;;;13.74;61.30;99152.20;131459;1253;114700;-74
2023/03/13 10:12:05;;;;;;;11.20;3.50;;;;;;;13.75;60.86;99153.89;131661;1253;114728;-75
2023/03/13 10:15:30;;;;;;;12.50;3.70;;;;;;;13.78;61.13;99146.23;130909;1266;114727;-74
2023/03/13 10:18:32;;;;;;;12.30;4.10;;;;;;;13.82;60.61;99146.15;131855;1262;113731;-74
2023/03/13 10:21:36;;;;;;;12.60;4.60;;;;;;;13.77;60.61;99143.63;130898;1264;128926;-74
2023/03/13 10:24:46;;;;;;;15.60;3.60;;;;;;;13.66;60.96;99137.52;131835;1262;114700;-74
2023/03/13 10:27:50;;;;;;;13.80;4.60;;;;;;;13.52;61.20;99136.02;130899;1266;114654;-74
2023/03/13 10:31:01;;;;;;;14.60;3.90;;;;;;;13.36;61.27;99132.08;131466;1264;113719;-74
2023/03/13 10:34:12;;;;;;;13.10;3.80;;;;;;;13.20;61.73;99124.66;130862;1263;114058;-74
2023/03/13 10:37:19;;;;;;;11.60;3.90;;;;;;;13.04;62.13;99124.16;130706;1266;127959;-73
2023/03/13 10:40:25;;;;;;;12.60;4.10;;;;;;;12.89;62.51;99122.13;130878;1263;115201;-74
2023/03/13 10:43:29;;;;;;;13.10;4.20;;;;;;;12.76;62.87;99118.21;130914;1264;116722;-74
2023/03/13 10:46:35;;;;;;;11.20;3.90;;;;;;;12.69;63.24;99113.39;130863;1266;113777;-74
2023/03/13 10:49:50;;;;;;;10.90;4.30;;;;;;;12.65;63.58;99112.65;130900;1253;113198;-74
2023/03/13 10:52:53;;;;;;;;;;;;;;;12.60;63.99;99118.19;131693;1253;127994;-74
2023/03/13 10:56:12;;;;;;;16.30;4.60;;;;;;;12.56;64.21;99118.00;131619;1257;115225;-74
2023/03/13 10:59:22;;;;;;;11.30;4.50;;;;;;;12.51;64.53;99112.84;131685;1254;114668;-73
2023/03/13 11:02:32;;;;;;;11.00;4.40;;;;;;;12.44;64.61;99113.67;131696;1257;114579;-74
2023/03/13 11:05:42;;;;;;;13.30;4.10;;;;;;;12.41;64.85;99124.83;131635;1253;114624;-74
2023/03/13 11:08:45;;;;;;;13.90;4.30;;;;;;;12.38;65.44;99127.77;131621;1253;128869;-74
2023/03/13 11:11:53;;;;;;;12.30;4.70;;;;;;;12.38;65.71;99124.92;131660;1253;114648;-74
2023/03/13 11:14:58;;;;;;;12.80;4.00;;;;;;;12.40;65.83;99128.29;131611;1257;114652;-74
2023/03/13 11:18:23;;;;;;;12.40;3.70;;;;;;;12.39;66.04;99129.83;131483;1253;114489;-74
2023/03/13 11:21:33;;;;;;;15.60;4.80;;;;;;;12.37;66.07;99132.68;131689;1253;113412;-74
2023/03/13 11:25:07;;;;;;;17.40;4.20;;;;;;;12.34;65.83;99129.19;131506;1253;128820;-73
2023/03/13 11:28:21;;;;;;;14.70;3.90;;;;;;;12.28;66.11;99129.59;131476;1256;116374;-74
2023/03/13 11:31:27;;;;;;;15.00;4.10;;;;;;;12.26;66.39;99123.84;131519;1255;114559;-74
2023/03/13 11:34:38;;;;;;;8.60;3.30;;;;;;;12.28;66.74;99114.33;131533;1256;114820;-74
2023/03/13 11:37:42;;;;;;;13.10;3.40;;;;;;;12.38;66.77;99104.35;131491;1256;114662;-74
2023/03/13 11:41:26;;;;;;;13.30;4.30;;;;;;;12.48;66.66;99093.90;131463;1256;128681;-74
2023/03/13 11:44:48;;;;;;;9.40;3.90;;;;;;;12.59;66.36;99095.71;132475;1259;114802;-74
2023/03/13 11:48:16;;;;;;;12.30;4.40;;;;;;;12.65;66.44;99082.39;131356;1256;114694;-73
2023/03/13 11:51:59;;;;;;;13.00;3.90;;;;;;;12.73;66.34;99071.75;131506;1257;113416;-75
2023/03/13 11:55:16;;;;;;;11.30;4.30;;;;;;;12.80;66.42;99067.21;131513;1260;114669;-74
2023/03/13 11:58:34;;;;;;;13.90;4.40;;;;;;;12.82;66.14;99072.47;131461;1256;128423;-74
2023/03/13 12:01:45;;;;;;;15.00;4.90;;;;;;;12.81;66.12;99072.68;131506;1256;114400;-74
2023/03/13 12:05:00;;;;;;;17.10;5.80;;;;;;;12.75;65.80;99068.13;131483;1257;113098;-74
2023/03/13 12:08:15;;;;;;;18.30;6.00;;;;;;;12.74;66.03;99069.33;131512;1256;114743;-74
2023/03/13 12:11:26;;;;;;;18.10;4.50;;;;;;;12.79;66.25;99063.91;131493;1257;113504;-75
2023/03/13 12:14:47;;;;;;;14.20;4.70;;;;;;;12.84;66.19;99062.22;131454;1256;128335;-74
2023/03/13 12:18:08;;;;;;;16.50;4.60;;;;;;;12.87;66.07;99056.28;131542;1256;115311;-74
2023/03/13 12:21:45;;;;;;;16.60;4.20;;;;;;;12.88;66.04;99047.45;131533;1260;114662;-73
2023/03/13 12:24:56;;;;;;;14.60;4.40;;;;;;;12.86;66.01;99044.35;131491;1257;114658;-74
2023/03/13 12:28:15;;;;;;;16.00;4.90;;;;;;;12.84;66.06;99048.86;131445;1256;113956;-75
2023/03/13 12:31:25;;;;;;;11.20;4.50;;;;;;;12.82;65.97;99050.59;131450;1256;129051;-75
2023/03/13 12:34:59;;;;;;;11.50;4.80;;;;;;;12.79;65.74;99047.13;131497;1256;115222;-75
2023/03/13 12:38:41;;;;;;;9.70;3.70;;;;;;;12.75;66.03;99045.21;131458;1256;114745;-74
2023/03/13 12:42:00;;;;;;;16.00;4.60;;;;;;;12.75;66.23;99037.49;131212;1259;114485;-74
2023/03/13 12:45:18;;;;;;;11.00;4.90;;;;;;;12.79;66.27;99035.98;131132;1260;114658;-73
2023/03/13 12:48:51;;;;;;;8.80;3.90;;;;;;;12.81;66.25;99031.48;131189;1259;128927;-74
2023/03/13 12:52:11;;;;;;;9.90;4.50;;;;;;;12.87;66.38;99014.75;131817;1260;115407;-75
2023/03/13 12:55:36;;;;;;;8.90;4.20;;;;;;;12.97;66.54;99012.13;131212;1264;113506;-74
2023/03/13 12:58:49;;;;;;;8.30;4.90;;;;;;;13.08;66.57;99016.80;131158;1259;114691;-74
2023/03/13 13:01:54;;;;;;;9.20;4.10;;;;;;;13.18;66.55;99017.46;131147;1264;113561;-75
2023/03/13 13:04:59;;;;;;;7.70;4.00;;;;;;;13.24;66.31;99010.84;131110;1259;129870;-74
2023/03/13 13:08:02;;;;;;;;;;;;;;;13.28;66.16;99012.17;131169;1259;114709;-74
2023/03/13 13:11:34;;;;;;;7.50;2.70;;;;;;;13.29;65.92;99014.58;131220;1264;114594;-74
2023/03/13 13:14:49;;;;;;;4.00;2.00;;;;;;;13.26;65.73;98999.61;131175;1260;114521;-74
2023/03/13 13:18:13;;;;;;;;;;;;;;;13.24;65.72;99002.30;131205;1264;114653;-75
2023/03/13 13:21:22;;;;;;;5.20;2.30;;;;;;;13.20;65.63;99000.08;131339;1256;127669;-74
2023/03/13 13:24:50;;;;;;;4.60;2.40;;;;;;;13.17;65.78;99002.48;131252;1256;377778;-74
2023/03/13 13:27:54;;;;;;;4.10;2.10;;;;;;;13.18;65.88;99003.86;131602;1259;114585;-74
2023/03/13 13:30:58;;;;;;;9.90;3.10;;;;;;;13.21;65.71;98997.27;131718;1253;114658;-75
2023/03/13 13:34:01;;;;;;;6.30;2.80;;;;;;;13.23;65.76;98994.98;131481;1258;113528;-72
2023/03/13 13:37:14;;;;;;;7.60;2.40;;;;;;;13.30;65.75;98990.80;131599;1253;113465;-73
2023/03/13 13:40:31;;;;;;;6.50;3.30;;;;;;;13.40;65.84;98996.70;131683;1253;114700;-75
2023/03/13 13:43:38;;;;;;;8.00;3.30;;;;;;;13.48;65.60;98992.80;131707;1257;114547;-70
2023/03/13 13:46:44;;;;;;;7.30;2.60;;;;;;;13.55;65.42;98987.57;131653;1253;114636;-69
2023/03/13 13:49:59;;;;;;;9.00;3.40;;;;;;;13.58;65.33;98987.67;131703;1253;113540;-69
2023/03/13 13:53:30;;;;;;;8.40;2.80;;;;;;;13.60;65.30;98983.44;131671;1253;129116;-74
2023/03/13 13:56:37;;;;;;;10.60;3.40;;;;;;;13.59;65.17;98982.57;131404;1253;114122;-74
2023/03/13 13:59:43;;;;;;;7.40;2.80;;;;;;;13.59;65.24;98982.95;131946;1253;114643;-74
2023/03/13 14:02:51;;;;;;;11.30;3.50;;;;;;;13.57;64.91;98982.00;131418;1254;113947;-73
2023/03/13 14:06:02;;;;;;;9.50;3.10;;;;;;;13.56;64.97;98981.59;131676;1253;113464;-74
2023/03/13 14:09:27;;;;;;;8.20;3.50;;;;;;;13.56;65.05;98974.99;131676;1254;127677;-72
2023/03/13 14:12:37;;;;;;;9.60;4.00;;;;;;;13.56;65.14;98969.73;131521;1254;114655;-74
2023/03/13 14:15:48;;;;;;;6.60;3.10;;;;;;;13.57;64.93;98972.34;131583;1257;113340;-73
2023/03/13 14:18:52;;;;;;;7.40;3.40;;;;;;;13.59;65.11;98975.06;131661;1254;114764;-73